sensor_id;sensor_type;location;lat;lon;timestamp;temperature;humidity
14737;DHT22;7459;53.590;10.062;2023-05-07T00:01:46;9.80;99.90
14737;DHT22;7459;53.590;10.062;2023-05-07T00:04:11;9.80;99.90
14737;DHT22;7459;53.590;10.062;2023-05-07T00:06:38;9.80;99.90
14737;DHT22;7459;53.590;10.062;2023-05-07T00:09:04;9.80;99.90
14737;DHT22;7459;53.590;10.062;2023-05-07T00:11:31;9.80;99.90
14737;DHT22;7459;53.590;10.062;2023-05-07T00:13:56;9.80;99.90
14737;DHT22;7459;53.590;10.062;2023-05-07T00:16:22;9.80;99.90
14737;DHT22;7459;53.590;10.062;2023-05-07T00:18:48;9.80;99.90
14737;DHT22;7459;53.590;10.062;2023-05-07T00:21:14;9.80;99.90
14737;DHT22;7459;53.590;10.062;2023-05-07T00:23:39;9.80;99.90
14737;DHT22;7459;53.590;10.062;2023-05-07T00:26:05;9.80;99.90
14737;DHT22;7459;53.590;10.062;2023-05-07T00:28:31;9.80;99.90
14737;DHT22;7459;53.590;10.062;2023-05-07T00:30:56;9.80;99.90
14737;DHT22;7459;53.590;10.062;2023-05-07T00:33:22;9.90;99.90
14737;DHT22;7459;53.590;10.062;2023-05-07T00:35:48;9.80;99.90
14737;DHT22;7459;53.590;10.062;2023-05-07T00:38:14;9.90;99.90
14737;DHT22;7459;53.590;10.062;2023-05-07T00:40:40;9.90;99.90
14737;DHT22;7459;53.590;10.062;2023-05-07T00:43:06;9.90;99.90
14737;DHT22;7459;53.590;10.062;2023-05-07T00:45:32;9.90;99.90
14737;DHT22;7459;53.590;10.062;2023-05-07T00:48:00;9.90;99.90
14737;DHT22;7459;53.590;10.062;2023-05-07T00:50:29;9.90;99.90
14737;DHT22;7459;53.590;10.062;2023-05-07T00:52:56;10.00;99.90
14737;DHT22;7459;53.590;10.062;2023-05-07T00:55:23;9.90;99.90
14737;DHT22;7459;53.590;10.062;2023-05-07T00:57:50;9.90;99.90
14737;DHT22;7459;53.590;10.062;2023-05-07T01:00:16;9.90;99.90
14737;DHT22;7459;53.590;10.062;2023-05-07T01:02:43;10.00;99.90
14737;DHT22;7459;53.590;10.062;2023-05-07T01:05:11;10.00;99.90
14737;DHT22;7459;53.590;10.062;2023-05-07T01:07:39;10.00;99.90
14737;DHT22;7459;53.590;10.062;2023-05-07T01:10:06;10.00;99.90
14737;DHT22;7459;53.590;10.062;2023-05-07T01:12:34;9.90;99.90
14737;DHT22;7459;53.590;10.062;2023-05-07T01:15:01;10.00;99.90
14737;DHT22;7459;53.590;10.062;2023-05-07T01:17:27;9.90;99.90
14737;DHT22;7459;53.590;10.062;2023-05-07T01:19:53;10.00;99.90
14737;DHT22;7459;53.590;10.062;2023-05-07T01:22:35;10.00;99.90
14737;DHT22;7459;53.590;10.062;2023-05-07T01:25:03;9.90;99.90
14737;DHT22;7459;53.590;10.062;2023-05-07T01:27:30;9.90;99.90
14737;DHT22;7459;53.590;10.062;2023-05-07T01:29:56;9.80;99.90
14737;DHT22;7459;53.590;10.062;2023-05-07T01:32:32;9.90;99.90
14737;DHT22;7459;53.590;10.062;2023-05-07T01:35:01;9.80;99.90
14737;DHT22;7459;53.590;10.062;2023-05-07T01:37:28;9.80;99.90
14737;DHT22;7459;53.590;10.062;2023-05-07T01:39:54;9.80;99.90
14737;DHT22;7459;53.590;10.062;2023-05-07T01:42:21;9.80;99.90
14737;DHT22;7459;53.590;10.062;2023-05-07T01:44:47;9.90;99.90
14737;DHT22;7459;53.590;10.062;2023-05-07T01:47:13;9.80;99.90
14737;DHT22;7459;53.590;10.062;2023-05-07T01:49:40;9.80;99.90
14737;DHT22;7459;53.590;10.062;2023-05-07T01:52:07;9.80;99.90
14737;DHT22;7459;53.590;10.062;2023-05-07T01:54:33;9.80;99.90
14737;DHT22;7459;53.590;10.062;2023-05-07T01:56:59;9.80;99.90
14737;DHT22;7459;53.590;10.062;2023-05-07T01:59:25;9.90;99.90
14737;DHT22;7459;53.590;10.062;2023-05-07T02:04:26;9.90;99.90
14737;DHT22;7459;53.590;10.062;2023-05-07T02:06:52;9.90;99.90
14737;DHT22;7459;53.590;10.062;2023-05-07T02:09:18;9.80;99.90
14737;DHT22;7459;53.590;10.062;2023-05-07T02:11:44;9.80;99.90
14737;DHT22;7459;53.590;10.062;2023-05-07T02:14:09;9.90;99.90
14737;DHT22;7459;53.590;10.062;2023-05-07T02:16:35;9.90;99.90
14737;DHT22;7459;53.590;10.062;2023-05-07T02:19:01;9.80;99.90
14737;DHT22;7459;53.590;10.062;2023-05-07T02:21:27;9.80;99.90
14737;DHT22;7459;53.590;10.062;2023-05-07T02:23:53;9.90;99.90
14737;DHT22;7459;53.590;10.062;2023-05-07T02:26:19;9.80;99.90
14737;DHT22;7459;53.590;10.062;2023-05-07T02:28:44;9.80;99.90
14737;DHT22;7459;53.590;10.062;2023-05-07T02:31:10;9.70;99.90
14737;DHT22;7459;53.590;10.062;2023-05-07T02:33:36;9.80;99.90
14737;DHT22;7459;53.590;10.062;2023-05-07T02:36:09;9.80;99.90
14737;DHT22;7459;53.590;10.062;2023-05-07T02:38:35;9.80;99.90
14737;DHT22;7459;53.590;10.062;2023-05-07T02:41:01;9.80;99.90
14737;DHT22;7459;53.590;10.062;2023-05-07T02:43:26;9.80;99.90
14737;DHT22;7459;53.590;10.062;2023-05-07T02:46:02;9.90;99.90
14737;DHT22;7459;53.590;10.062;2023-05-07T02:48:32;9.90;99.90
14737;DHT22;7459;53.590;10.062;2023-05-07T02:50:59;9.90;99.90
14737;DHT22;7459;53.590;10.062;2023-05-07T02:53:25;9.90;99.90
14737;DHT22;7459;53.590;10.062;2023-05-07T02:55:55;9.90;99.90
14737;DHT22;7459;53.590;10.062;2023-05-07T02:58:22;9.90;99.90
14737;DHT22;7459;53.590;10.062;2023-05-07T03:00:47;9.90;99.90
14737;DHT22;7459;53.590;10.062;2023-05-07T03:03:14;9.90;99.90
14737;DHT22;7459;53.590;10.062;2023-05-07T03:05:40;9.80;99.90
14737;DHT22;7459;53.590;10.062;2023-05-07T03:08:06;9.80;99.90
14737;DHT22;7459;53.590;10.062;2023-05-07T03:10:33;9.80;99.90
14737;DHT22;7459;53.590;10.062;2023-05-07T03:12:59;9.80;99.90
14737;DHT22;7459;53.590;10.062;2023-05-07T03:15:25;9.80;99.90
14737;DHT22;7459;53.590;10.062;2023-05-07T03:17:50;9.80;99.90
14737;DHT22;7459;53.590;10.062;2023-05-07T03:20:16;9.80;99.90
14737;DHT22;7459;53.590;10.062;2023-05-07T03:22:42;9.80;99.90
14737;DHT22;7459;53.590;10.062;2023-05-07T03:25:08;9.80;99.90
14737;DHT22;7459;53.590;10.062;2023-05-07T03:27:36;9.80;99.90
14737;DHT22;7459;53.590;10.062;2023-05-07T03:30:02;9.90;99.90
14737;DHT22;7459;53.590;10.062;2023-05-07T03:32:28;9.80;99.90
14737;DHT22;7459;53.590;10.062;2023-05-07T03:34:53;9.80;99.90
14737;DHT22;7459;53.590;10.062;2023-05-07T03:37:19;9.70;99.90
14737;DHT22;7459;53.590;10.062;2023-05-07T03:39:45;9.80;99.90
14737;DHT22;7459;53.590;10.062;2023-05-07T03:42:10;9.80;99.90
14737;DHT22;7459;53.590;10.062;2023-05-07T03:44:36;9.80;99.90
14737;DHT22;7459;53.590;10.062;2023-05-07T03:47:03;9.80;99.90
14737;DHT22;7459;53.590;10.062;2023-05-07T03:49:29;9.80;99.90
14737;DHT22;7459;53.590;10.062;2023-05-07T03:51:55;9.70;99.90
14737;DHT22;7459;53.590;10.062;2023-05-07T03:54:21;9.80;99.90
14737;DHT22;7459;53.590;10.062;2023-05-07T03:56:46;9.70;99.90
14737;DHT22;7459;53.590;10.062;2023-05-07T03:59:12;9.70;99.90
14737;DHT22;7459;53.590;10.062;2023-05-07T04:01:38;9.80;99.90
14737;DHT22;7459;53.590;10.062;2023-05-07T04:04:04;9.80;99.90
14737;DHT22;7459;53.590;10.062;2023-05-07T04:06:30;9.80;99.90
14737;DHT22;7459;53.590;10.062;2023-05-07T04:08:56;9.80;99.90
14737;DHT22;7459;53.590;10.062;2023-05-07T04:11:22;9.80;99.90
14737;DHT22;7459;53.590;10.062;2023-05-07T04:13:47;9.80;99.90
14737;DHT22;7459;53.590;10.062;2023-05-07T04:16:13;9.80;99.90
14737;DHT22;7459;53.590;10.062;2023-05-07T04:18:39;9.70;99.90
14737;DHT22;7459;53.590;10.062;2023-05-07T04:21:05;9.70;99.90
14737;DHT22;7459;53.590;10.062;2023-05-07T04:23:31;9.70;99.90
14737;DHT22;7459;53.590;10.062;2023-05-07T04:25:56;9.80;99.90
14737;DHT22;7459;53.590;10.062;2023-05-07T04:28:23;9.80;99.90
14737;DHT22;7459;53.590;10.062;2023-05-07T04:30:49;9.70;99.90
14737;DHT22;7459;53.590;10.062;2023-05-07T04:33:15;9.70;99.90
14737;DHT22;7459;53.590;10.062;2023-05-07T04:35:43;9.70;99.90
14737;DHT22;7459;53.590;10.062;2023-05-07T04:38:09;9.70;99.90
14737;DHT22;7459;53.590;10.062;2023-05-07T04:40:36;9.70;99.90
14737;DHT22;7459;53.590;10.062;2023-05-07T04:43:02;9.70;99.90
14737;DHT22;7459;53.590;10.062;2023-05-07T04:45:27;9.70;99.90
14737;DHT22;7459;53.590;10.062;2023-05-07T04:47:53;9.70;99.90
14737;DHT22;7459;53.590;10.062;2023-05-07T04:50:19;9.70;99.90
14737;DHT22;7459;53.590;10.062;2023-05-07T04:52:45;9.70;99.90
14737;DHT22;7459;53.590;10.062;2023-05-07T04:55:11;9.70;99.90
14737;DHT22;7459;53.590;10.062;2023-05-07T04:57:36;9.70;99.90
14737;DHT22;7459;53.590;10.062;2023-05-07T05:00:05;9.70;99.90
14737;DHT22;7459;53.590;10.062;2023-05-07T05:02:33;9.80;99.90
14737;DHT22;7459;53.590;10.062;2023-05-07T05:05:00;9.70;99.90
14737;DHT22;7459;53.590;10.062;2023-05-07T05:07:27;9.80;99.90
14737;DHT22;7459;53.590;10.062;2023-05-07T05:09:53;9.70;99.90
14737;DHT22;7459;53.590;10.062;2023-05-07T05:12:20;9.70;99.90
14737;DHT22;7459;53.590;10.062;2023-05-07T05:14:45;9.80;99.90
14737;DHT22;7459;53.590;10.062;2023-05-07T05:17:11;9.70;99.90
14737;DHT22;7459;53.590;10.062;2023-05-07T05:19:37;9.70;99.90
14737;DHT22;7459;53.590;10.062;2023-05-07T05:22:02;9.70;99.90
14737;DHT22;7459;53.590;10.062;2023-05-07T05:24:29;9.70;99.90
14737;DHT22;7459;53.590;10.062;2023-05-07T05:26:56;9.80;99.90
14737;DHT22;7459;53.590;10.062;2023-05-07T05:29:21;9.80;99.90
14737;DHT22;7459;53.590;10.062;2023-05-07T05:31:48;9.90;99.90
14737;DHT22;7459;53.590;10.062;2023-05-07T05:34:13;9.90;99.90
14737;DHT22;7459;53.590;10.062;2023-05-07T05:36:39;9.80;99.90
14737;DHT22;7459;53.590;10.062;2023-05-07T05:39:05;9.80;99.90
14737;DHT22;7459;53.590;10.062;2023-05-07T05:41:31;9.90;99.90
14737;DHT22;7459;53.590;10.062;2023-05-07T05:43:56;9.90;99.90
14737;DHT22;7459;53.590;10.062;2023-05-07T05:46:22;9.80;99.90
14737;DHT22;7459;53.590;10.062;2023-05-07T05:48:48;9.80;99.90
14737;DHT22;7459;53.590;10.062;2023-05-07T05:51:13;9.90;99.90
14737;DHT22;7459;53.590;10.062;2023-05-07T05:53:39;9.90;99.90
14737;DHT22;7459;53.590;10.062;2023-05-07T05:56:05;9.80;99.90
14737;DHT22;7459;53.590;10.062;2023-05-07T05:58:31;9.90;99.90
14737;DHT22;7459;53.590;10.062;2023-05-07T06:00:57;9.90;99.90
14737;DHT22;7459;53.590;10.062;2023-05-07T06:03:23;9.80;99.90
14737;DHT22;7459;53.590;10.062;2023-05-07T06:05:49;9.90;99.90
14737;DHT22;7459;53.590;10.062;2023-05-07T06:08:14;9.80;99.90
14737;DHT22;7459;53.590;10.062;2023-05-07T06:10:40;9.90;99.90
14737;DHT22;7459;53.590;10.062;2023-05-07T06:13:06;9.90;99.90
14737;DHT22;7459;53.590;10.062;2023-05-07T06:15:32;9.90;99.90
14737;DHT22;7459;53.590;10.062;2023-05-07T06:17:58;9.90;99.90
14737;DHT22;7459;53.590;10.062;2023-05-07T06:20:24;10.00;99.90
14737;DHT22;7459;53.590;10.062;2023-05-07T06:22:49;9.90;99.90
14737;DHT22;7459;53.590;10.062;2023-05-07T06:25:15;10.00;99.90
14737;DHT22;7459;53.590;10.062;2023-05-07T06:27:41;10.00;99.90
14737;DHT22;7459;53.590;10.062;2023-05-07T06:30:07;10.00;99.90
14737;DHT22;7459;53.590;10.062;2023-05-07T06:32:33;10.00;99.90
14737;DHT22;7459;53.590;10.062;2023-05-07T06:34:59;10.00;99.90
14737;DHT22;7459;53.590;10.062;2023-05-07T06:37:25;10.00;99.90
14737;DHT22;7459;53.590;10.062;2023-05-07T06:39:51;10.00;99.90
14737;DHT22;7459;53.590;10.062;2023-05-07T06:42:16;10.00;99.90
14737;DHT22;7459;53.590;10.062;2023-05-07T06:44:42;9.90;99.90
14737;DHT22;7459;53.590;10.062;2023-05-07T06:47:08;9.90;99.90
14737;DHT22;7459;53.590;10.062;2023-05-07T06:49:33;10.00;99.90
14737;DHT22;7459;53.590;10.062;2023-05-07T06:51:59;10.00;99.90
14737;DHT22;7459;53.590;10.062;2023-05-07T06:54:25;10.00;99.90
14737;DHT22;7459;53.590;10.062;2023-05-07T06:56:50;10.00;99.90
14737;DHT22;7459;53.590;10.062;2023-05-07T06:59:16;10.00;99.90
14737;DHT22;7459;53.590;10.062;2023-05-07T07:01:42;10.00;99.90
14737;DHT22;7459;53.590;10.062;2023-05-07T07:04:08;10.00;99.90
14737;DHT22;7459;53.590;10.062;2023-05-07T07:06:33;10.00;99.90
14737;DHT22;7459;53.590;10.062;2023-05-07T07:08:59;10.00;99.90
14737;DHT22;7459;53.590;10.062;2023-05-07T07:11:25;10.00;99.90
14737;DHT22;7459;53.590;10.062;2023-05-07T07:13:51;10.00;99.90
14737;DHT22;7459;53.590;10.062;2023-05-07T07:16:19;10.00;99.90
14737;DHT22;7459;53.590;10.062;2023-05-07T07:18:45;10.00;99.90
14737;DHT22;7459;53.590;10.062;2023-05-07T07:21:10;10.00;99.90
14737;DHT22;7459;53.590;10.062;2023-05-07T07:23:36;10.00;99.90
14737;DHT22;7459;53.590;10.062;2023-05-07T07:26:02;10.10;99.90
14737;DHT22;7459;53.590;10.062;2023-05-07T07:28:27;10.10;99.90
14737;DHT22;7459;53.590;10.062;2023-05-07T07:30:53;10.10;99.90
14737;DHT22;7459;53.590;10.062;2023-05-07T07:33:18;10.10;99.90
14737;DHT22;7459;53.590;10.062;2023-05-07T07:35:44;10.10;99.90
14737;DHT22;7459;53.590;10.062;2023-05-07T07:38:10;10.10;99.90
14737;DHT22;7459;53.590;10.062;2023-05-07T07:40:36;10.10;99.90
14737;DHT22;7459;53.590;10.062;2023-05-07T07:43:01;10.10;99.90
14737;DHT22;7459;53.590;10.062;2023-05-07T07:45:27;10.20;99.90
14737;DHT22;7459;53.590;10.062;2023-05-07T07:47:53;10.10;99.90
14737;DHT22;7459;53.590;10.062;2023-05-07T07:50:18;10.20;99.90
14737;DHT22;7459;53.590;10.062;2023-05-07T07:52:45;10.20;99.90
14737;DHT22;7459;53.590;10.062;2023-05-07T07:55:11;10.20;99.90
14737;DHT22;7459;53.590;10.062;2023-05-07T07:57:37;10.20;99.90
14737;DHT22;7459;53.590;10.062;2023-05-07T08:00:03;10.20;99.90
14737;DHT22;7459;53.590;10.062;2023-05-07T08:02:31;10.20;99.90
14737;DHT22;7459;53.590;10.062;2023-05-07T08:04:57;10.20;99.90
14737;DHT22;7459;53.590;10.062;2023-05-07T08:07:22;10.30;99.90
14737;DHT22;7459;53.590;10.062;2023-05-07T08:09:48;10.30;99.90
14737;DHT22;7459;53.590;10.062;2023-05-07T08:12:14;10.30;99.90
14737;DHT22;7459;53.590;10.062;2023-05-07T08:14:41;10.30;99.90
14737;DHT22;7459;53.590;10.062;2023-05-07T08:17:06;10.30;99.90
14737;DHT22;7459;53.590;10.062;2023-05-07T08:19:32;10.40;99.90
14737;DHT22;7459;53.590;10.062;2023-05-07T08:21:58;10.40;99.90
14737;DHT22;7459;53.590;10.062;2023-05-07T08:24:24;10.40;99.90
14737;DHT22;7459;53.590;10.062;2023-05-07T08:26:49;10.40;99.90
14737;DHT22;7459;53.590;10.062;2023-05-07T08:29:15;10.40;99.90
14737;DHT22;7459;53.590;10.062;2023-05-07T08:31:41;10.40;99.90
14737;DHT22;7459;53.590;10.062;2023-05-07T08:34:07;10.40;99.90
14737;DHT22;7459;53.590;10.062;2023-05-07T08:36:32;10.50;99.90
14737;DHT22;7459;53.590;10.062;2023-05-07T08:38:59;10.50;99.90
14737;DHT22;7459;53.590;10.062;2023-05-07T08:41:25;10.50;99.90
14737;DHT22;7459;53.590;10.062;2023-05-07T08:43:51;10.50;99.90
14737;DHT22;7459;53.590;10.062;2023-05-07T08:46:21;10.50;99.90
14737;DHT22;7459;53.590;10.062;2023-05-07T08:48:51;10.50;99.90
14737;DHT22;7459;53.590;10.062;2023-05-07T08:51:21;10.50;99.90
14737;DHT22;7459;53.590;10.062;2023-05-07T08:53:48;10.50;99.90
14737;DHT22;7459;53.590;10.062;2023-05-07T08:56:15;10.50;99.90
14737;DHT22;7459;53.590;10.062;2023-05-07T08:58:42;10.50;99.90
14737;DHT22;7459;53.590;10.062;2023-05-07T09:01:10;10.50;99.90
14737;DHT22;7459;53.590;10.062;2023-05-07T09:03:39;10.50;99.90
14737;DHT22;7459;53.590;10.062;2023-05-07T09:06:05;10.50;99.90
14737;DHT22;7459;53.590;10.062;2023-05-07T09:08:33;10.50;99.90
14737;DHT22;7459;53.590;10.062;2023-05-07T09:10:59;10.50;99.90
14737;DHT22;7459;53.590;10.062;2023-05-07T09:13:25;10.50;99.90
14737;DHT22;7459;53.590;10.062;2023-05-07T09:15:52;10.50;99.90
14737;DHT22;7459;53.590;10.062;2023-05-07T09:18:18;10.60;99.90
14737;DHT22;7459;53.590;10.062;2023-05-07T09:20:44;10.50;99.90
14737;DHT22;7459;53.590;10.062;2023-05-07T09:23:10;10.50;99.90
14737;DHT22;7459;53.590;10.062;2023-05-07T09:25:36;10.60;99.90
14737;DHT22;7459;53.590;10.062;2023-05-07T09:28:03;10.60;99.90
14737;DHT22;7459;53.590;10.062;2023-05-07T09:30:30;10.60;99.90
14737;DHT22;7459;53.590;10.062;2023-05-07T09:32:58;10.60;99.90
14737;DHT22;7459;53.590;10.062;2023-05-07T09:35:26;10.60;99.90
14737;DHT22;7459;53.590;10.062;2023-05-07T09:37:53;10.70;99.90
14737;DHT22;7459;53.590;10.062;2023-05-07T09:40:25;10.60;99.90
14737;DHT22;7459;53.590;10.062;2023-05-07T09:42:52;10.70;99.90
14737;DHT22;7459;53.590;10.062;2023-05-07T09:45:22;10.70;99.90
14737;DHT22;7459;53.590;10.062;2023-05-07T09:47:49;10.60;99.90
14737;DHT22;7459;53.590;10.062;2023-05-07T09:50:20;10.70;99.90
14737;DHT22;7459;53.590;10.062;2023-05-07T09:52:48;10.70;99.90
14737;DHT22;7459;53.590;10.062;2023-05-07T09:55:14;10.70;99.90
14737;DHT22;7459;53.590;10.062;2023-05-07T09:57:40;10.70;99.90
14737;DHT22;7459;53.590;10.062;2023-05-07T10:00:07;10.70;99.90
14737;DHT22;7459;53.590;10.062;2023-05-07T10:02:35;10.80;99.90
14737;DHT22;7459;53.590;10.062;2023-05-07T10:05:02;10.80;99.90
14737;DHT22;7459;53.590;10.062;2023-05-07T10:07:29;10.80;99.90
14737;DHT22;7459;53.590;10.062;2023-05-07T10:09:55;10.80;99.90
14737;DHT22;7459;53.590;10.062;2023-05-07T10:12:22;10.80;99.90
14737;DHT22;7459;53.590;10.062;2023-05-07T10:14:50;10.90;99.90
14737;DHT22;7459;53.590;10.062;2023-05-07T10:17:16;10.90;99.90
14737;DHT22;7459;53.590;10.062;2023-05-07T10:19:44;10.90;99.90
14737;DHT22;7459;53.590;10.062;2023-05-07T10:22:11;10.90;99.90
14737;DHT22;7459;53.590;10.062;2023-05-07T10:24:39;10.90;99.90
14737;DHT22;7459;53.590;10.062;2023-05-07T10:27:10;11.00;99.90
14737;DHT22;7459;53.590;10.062;2023-05-07T10:29:49;11.00;99.90
14737;DHT22;7459;53.590;10.062;2023-05-07T10:32:45;10.90;99.90
14737;DHT22;7459;53.590;10.062;2023-05-07T10:35:24;11.00;99.90
14737;DHT22;7459;53.590;10.062;2023-05-07T10:37:52;11.00;99.90
14737;DHT22;7459;53.590;10.062;2023-05-07T10:40:20;11.00;99.90
14737;DHT22;7459;53.590;10.062;2023-05-07T10:43:00;11.10;99.90
14737;DHT22;7459;53.590;10.062;2023-05-07T10:45:28;11.10;99.90
14737;DHT22;7459;53.590;10.062;2023-05-07T10:48:15;11.10;99.90
14737;DHT22;7459;53.590;10.062;2023-05-07T10:50:43;11.20;99.90
14737;DHT22;7459;53.590;10.062;2023-05-07T10:55:51;11.20;99.90
14737;DHT22;7459;53.590;10.062;2023-05-07T10:58:34;11.20;99.90
14737;DHT22;7459;53.590;10.062;2023-05-07T11:01:02;11.20;99.90
14737;DHT22;7459;53.590;10.062;2023-05-07T11:03:29;11.20;99.90
14737;DHT22;7459;53.590;10.062;2023-05-07T11:06:15;11.20;99.90
14737;DHT22;7459;53.590;10.062;2023-05-07T11:08:57;11.20;99.90
14737;DHT22;7459;53.590;10.062;2023-05-07T11:17:11;11.30;99.90
14737;DHT22;7459;53.590;10.062;2023-05-07T11:19:56;11.40;99.90
14737;DHT22;7459;53.590;10.062;2023-05-07T11:22:40;11.40;99.90
14737;DHT22;7459;53.590;10.062;2023-05-07T11:25:06;11.40;99.90
14737;DHT22;7459;53.590;10.062;2023-05-07T11:27:32;11.50;99.90
14737;DHT22;7459;53.590;10.062;2023-05-07T11:29:59;11.50;99.90
14737;DHT22;7459;53.590;10.062;2023-05-07T11:32:27;11.50;99.90
14737;DHT22;7459;53.590;10.062;2023-05-07T11:34:56;11.60;99.90
14737;DHT22;7459;53.590;10.062;2023-05-07T11:37:24;11.60;99.90
14737;DHT22;7459;53.590;10.062;2023-05-07T11:39:50;11.70;99.90
14737;DHT22;7459;53.590;10.062;2023-05-07T11:42:31;11.70;99.90
14737;DHT22;7459;53.590;10.062;2023-05-07T11:44:58;11.70;99.90
14737;DHT22;7459;53.590;10.062;2023-05-07T11:47:24;11.70;99.90
14737;DHT22;7459;53.590;10.062;2023-05-07T11:49:54;11.80;99.90
14737;DHT22;7459;53.590;10.062;2023-05-07T11:52:21;11.80;99.90
14737;DHT22;7459;53.590;10.062;2023-05-07T11:54:56;11.90;99.90
14737;DHT22;7459;53.590;10.062;2023-05-07T11:57:24;11.90;99.90
14737;DHT22;7459;53.590;10.062;2023-05-07T11:59:56;12.00;99.90
14737;DHT22;7459;53.590;10.062;2023-05-07T12:02:24;12.00;99.90
14737;DHT22;7459;53.590;10.062;2023-05-07T12:04:53;12.10;99.90
14737;DHT22;7459;53.590;10.062;2023-05-07T12:07:19;12.10;99.90
14737;DHT22;7459;53.590;10.062;2023-05-07T12:09:45;12.10;99.90
14737;DHT22;7459;53.590;10.062;2023-05-07T12:12:11;12.10;99.90
14737;DHT22;7459;53.590;10.062;2023-05-07T12:14:39;12.20;99.90
14737;DHT22;7459;53.590;10.062;2023-05-07T12:17:07;12.20;99.90
14737;DHT22;7459;53.590;10.062;2023-05-07T12:19:34;12.30;99.90
14737;DHT22;7459;53.590;10.062;2023-05-07T12:22:00;12.30;99.90
14737;DHT22;7459;53.590;10.062;2023-05-07T12:24:27;12.30;99.90
14737;DHT22;7459;53.590;10.062;2023-05-07T12:26:53;12.40;99.90
14737;DHT22;7459;53.590;10.062;2023-05-07T12:29:22;12.40;99.90
14737;DHT22;7459;53.590;10.062;2023-05-07T12:31:49;12.50;99.90
14737;DHT22;7459;53.590;10.062;2023-05-07T12:34:15;12.50;99.90
14737;DHT22;7459;53.590;10.062;2023-05-07T12:36:41;12.50;99.90
14737;DHT22;7459;53.590;10.062;2023-05-07T12:39:08;12.50;99.90
14737;DHT22;7459;53.590;10.062;2023-05-07T12:41:53;12.60;99.90
14737;DHT22;7459;53.590;10.062;2023-05-07T12:44:22;12.60;99.90
14737;DHT22;7459;53.590;10.062;2023-05-07T12:46:49;12.60;99.90
14737;DHT22;7459;53.590;10.062;2023-05-07T12:49:15;12.70;99.90
14737;DHT22;7459;53.590;10.062;2023-05-07T12:51:41;12.80;99.90
14737;DHT22;7459;53.590;10.062;2023-05-07T12:54:06;12.80;99.90
14737;DHT22;7459;53.590;10.062;2023-05-07T12:56:35;12.90;99.90
14737;DHT22;7459;53.590;10.062;2023-05-07T12:59:02;12.90;99.90
14737;DHT22;7459;53.590;10.062;2023-05-07T13:01:31;13.00;99.90
14737;DHT22;7459;53.590;10.062;2023-05-07T13:04:03;13.00;99.90
14737;DHT22;7459;53.590;10.062;2023-05-07T13:06:30;13.00;99.90
14737;DHT22;7459;53.590;10.062;2023-05-07T13:08:56;13.20;99.90
14737;DHT22;7459;53.590;10.062;2023-05-07T13:11:22;13.30;99.90
14737;DHT22;7459;53.590;10.062;2023-05-07T13:13:48;13.40;99.90
14737;DHT22;7459;53.590;10.062;2023-05-07T13:16:14;13.40;99.90
14737;DHT22;7459;53.590;10.062;2023-05-07T13:18:40;13.40;99.90
14737;DHT22;7459;53.590;10.062;2023-05-07T13:21:06;13.30;99.90
14737;DHT22;7459;53.590;10.062;2023-05-07T13:23:32;13.30;99.90
14737;DHT22;7459;53.590;10.062;2023-05-07T13:25:57;13.40;99.90
14737;DHT22;7459;53.590;10.062;2023-05-07T13:28:24;13.30;99.90
14737;DHT22;7459;53.590;10.062;2023-05-07T13:30:50;13.40;99.90
14737;DHT22;7459;53.590;10.062;2023-05-07T13:33:17;13.40;99.90
14737;DHT22;7459;53.590;10.062;2023-05-07T13:35:43;13.50;99.90
14737;DHT22;7459;53.590;10.062;2023-05-07T13:38:09;13.60;99.90
14737;DHT22;7459;53.590;10.062;2023-05-07T13:40:35;13.60;99.90
14737;DHT22;7459;53.590;10.062;2023-05-07T13:43:01;13.80;99.90
14737;DHT22;7459;53.590;10.062;2023-05-07T13:45:30;13.80;99.90
14737;DHT22;7459;53.590;10.062;2023-05-07T13:47:56;13.90;99.90
14737;DHT22;7459;53.590;10.062;2023-05-07T13:52:49;14.00;99.90
14737;DHT22;7459;53.590;10.062;2023-05-07T13:55:18;14.10;99.90
14737;DHT22;7459;53.590;10.062;2023-05-07T13:57:55;14.10;99.90
14737;DHT22;7459;53.590;10.062;2023-05-07T14:00:22;14.10;99.90
14737;DHT22;7459;53.590;10.062;2023-05-07T14:02:48;14.10;99.90
14737;DHT22;7459;53.590;10.062;2023-05-07T14:05:14;14.20;99.90
14737;DHT22;7459;53.590;10.062;2023-05-07T14:07:39;14.20;99.90
14737;DHT22;7459;53.590;10.062;2023-05-07T14:10:06;14.20;99.90
14737;DHT22;7459;53.590;10.062;2023-05-07T14:12:32;14.20;99.90
14737;DHT22;7459;53.590;10.062;2023-05-07T14:14:58;14.20;99.90
14737;DHT22;7459;53.590;10.062;2023-05-07T14:17:24;14.30;99.90
14737;DHT22;7459;53.590;10.062;2023-05-07T14:19:53;14.30;99.90
14737;DHT22;7459;53.590;10.062;2023-05-07T14:22:22;14.30;99.90
14737;DHT22;7459;53.590;10.062;2023-05-07T14:24:49;14.30;99.90
14737;DHT22;7459;53.590;10.062;2023-05-07T14:27:15;14.30;99.90
14737;DHT22;7459;53.590;10.062;2023-05-07T14:29:42;14.40;99.90
14737;DHT22;7459;53.590;10.062;2023-05-07T14:32:08;14.40;99.90
14737;DHT22;7459;53.590;10.062;2023-05-07T14:34:34;14.40;99.90
14737;DHT22;7459;53.590;10.062;2023-05-07T14:37:00;14.40;99.90
14737;DHT22;7459;53.590;10.062;2023-05-07T14:39:26;14.50;99.90
14737;DHT22;7459;53.590;10.062;2023-05-07T14:41:52;14.60;99.90
14737;DHT22;7459;53.590;10.062;2023-05-07T14:44:20;14.50;99.90
14737;DHT22;7459;53.590;10.062;2023-05-07T14:46:46;14.50;99.90
14737;DHT22;7459;53.590;10.062;2023-05-07T14:49:11;14.50;99.90
14737;DHT22;7459;53.590;10.062;2023-05-07T14:51:43;14.50;99.90
14737;DHT22;7459;53.590;10.062;2023-05-07T14:54:09;14.50;99.90
14737;DHT22;7459;53.590;10.062;2023-05-07T14:56:35;14.50;99.90
14737;DHT22;7459;53.590;10.062;2023-05-07T14:59:02;14.50;99.90
14737;DHT22;7459;53.590;10.062;2023-05-07T15:01:28;14.50;99.90
14737;DHT22;7459;53.590;10.062;2023-05-07T15:03:54;14.50;99.90
14737;DHT22;7459;53.590;10.062;2023-05-07T15:06:21;14.60;99.90
14737;DHT22;7459;53.590;10.062;2023-05-07T15:08:47;14.50;99.90
14737;DHT22;7459;53.590;10.062;2023-05-07T15:11:13;14.60;99.90
14737;DHT22;7459;53.590;10.062;2023-05-07T15:13:39;14.60;99.90
14737;DHT22;7459;53.590;10.062;2023-05-07T15:16:06;14.60;99.90
14737;DHT22;7459;53.590;10.062;2023-05-07T15:18:32;14.70;99.90
14737;DHT22;7459;53.590;10.062;2023-05-07T15:20:58;14.70;99.90
14737;DHT22;7459;53.590;10.062;2023-05-07T15:23:23;14.70;99.90
14737;DHT22;7459;53.590;10.062;2023-05-07T15:25:49;14.70;99.90
14737;DHT22;7459;53.590;10.062;2023-05-07T15:28:15;14.70;99.90
14737;DHT22;7459;53.590;10.062;2023-05-07T15:30:41;14.70;99.90
14737;DHT22;7459;53.590;10.062;2023-05-07T15:33:06;14.70;99.90
14737;DHT22;7459;53.590;10.062;2023-05-07T15:35:32;14.60;99.90
14737;DHT22;7459;53.590;10.062;2023-05-07T15:37:58;14.60;99.90
14737;DHT22;7459;53.590;10.062;2023-05-07T15:40:24;14.70;99.90
14737;DHT22;7459;53.590;10.062;2023-05-07T15:42:50;14.60;99.90
14737;DHT22;7459;53.590;10.062;2023-05-07T15:45:19;14.70;99.90
14737;DHT22;7459;53.590;10.062;2023-05-07T15:47:45;14.70;99.90
14737;DHT22;7459;53.590;10.062;2023-05-07T15:50:11;14.60;99.90